sensor_id;sensor_type;location;lat;lon;timestamp;P1;durP1;ratioP1;P2;durP2;ratioP2
62102;SDS011;48077;48.104;11.702;2023-07-09T00:00:59;21.02;;;17.95;;
62102;SDS011;48077;48.104;11.702;2023-07-09T00:07:40;28.23;;;24.05;;
62102;SDS011;48077;48.104;11.702;2023-07-09T00:10:08;24.42;;;21.40;;
62102;SDS011;48077;48.104;11.702;2023-07-09T00:12:37;24.55;;;21.70;;
62102;SDS011;48077;48.104;11.702;2023-07-09T00:15:01;24.17;;;19.75;;
62102;SDS011;48077;48.104;11.702;2023-07-09T00:17:28;25.63;;;20.42;;
62102;SDS011;48077;48.104;11.702;2023-07-09T00:19:54;22.50;;;20.02;;
62102;SDS011;48077;48.104;11.702;2023-07-09T00:22:18;27.05;;;23.50;;
62102;SDS011;48077;48.104;11.702;2023-07-09T00:24:43;31.17;;;25.02;;
62102;SDS011;48077;48.104;11.702;2023-07-09T00:27:13;26.25;;;23.02;;
62102;SDS011;48077;48.104;11.702;2023-07-09T00:29:39;22.38;;;20.10;;
62102;SDS011;48077;48.104;11.702;2023-07-09T00:32:02;22.55;;;19.17;;
62102;SDS011;48077;48.104;11.702;2023-07-09T00:34:26;24.83;;;21.45;;
62102;SDS011;48077;48.104;11.702;2023-07-09T00:36:49;24.02;;;21.75;;
62102;SDS011;48077;48.104;11.702;2023-07-09T00:39:16;25.80;;;22.55;;
62102;SDS011;48077;48.104;11.702;2023-07-09T00:41:41;22.27;;;19.97;;
62102;SDS011;48077;48.104;11.702;2023-07-09T00:44:38;25.45;;;22.83;;
62102;SDS011;48077;48.104;11.702;2023-07-09T00:49:29;26.95;;;24.20;;
62102;SDS011;48077;48.104;11.702;2023-07-09T00:51:55;26.73;;;24.00;;
62102;SDS011;48077;48.104;11.702;2023-07-09T00:54:25;26.45;;;23.08;;
62102;SDS011;48077;48.104;11.702;2023-07-09T00:56:53;30.02;;;26.90;;
62102;SDS011;48077;48.104;11.702;2023-07-09T00:59:18;24.70;;;21.23;;
62102;SDS011;48077;48.104;11.702;2023-07-09T01:01:46;28.98;;;25.85;;
62102;SDS011;48077;48.104;11.702;2023-07-09T01:04:13;29.05;;;26.00;;
62102;SDS011;48077;48.104;11.702;2023-07-09T01:06:41;24.73;;;22.08;;
62102;SDS011;48077;48.104;11.702;2023-07-09T01:09:07;29.65;;;26.52;;
62102;SDS011;48077;48.104;11.702;2023-07-09T01:11:30;29.45;;;25.33;;
62102;SDS011;48077;48.104;11.702;2023-07-09T01:13:54;29.65;;;26.55;;
62102;SDS011;48077;48.104;11.702;2023-07-09T01:16:20;33.08;;;29.70;;
62102;SDS011;48077;48.104;11.702;2023-07-09T01:18:46;29.35;;;26.48;;
62102;SDS011;48077;48.104;11.702;2023-07-09T01:21:10;23.73;;;21.40;;
62102;SDS011;48077;48.104;11.702;2023-07-09T01:23:39;28.55;;;25.48;;
62102;SDS011;48077;48.104;11.702;2023-07-09T01:26:06;27.50;;;24.77;;
62102;SDS011;48077;48.104;11.702;2023-07-09T01:28:30;27.80;;;25.20;;
62102;SDS011;48077;48.104;11.702;2023-07-09T01:30:53;27.15;;;24.38;;
62102;SDS011;48077;48.104;11.702;2023-07-09T01:33:19;31.40;;;27.48;;
62102;SDS011;48077;48.104;11.702;2023-07-09T01:35:45;31.65;;;28.27;;
62102;SDS011;48077;48.104;11.702;2023-07-09T01:38:08;28.98;;;25.98;;
62102;SDS011;48077;48.104;11.702;2023-07-09T01:40:32;26.88;;;24.13;;
62102;SDS011;48077;48.104;11.702;2023-07-09T01:42:56;25.95;;;23.38;;
62102;SDS011;48077;48.104;11.702;2023-07-09T01:45:21;32.38;;;28.23;;
62102;SDS011;48077;48.104;11.702;2023-07-09T01:47:44;26.02;;;23.40;;
62102;SDS011;48077;48.104;11.702;2023-07-09T01:50:08;26.85;;;24.20;;
62102;SDS011;48077;48.104;11.702;2023-07-09T01:52:33;29.55;;;26.40;;
62102;SDS011;48077;48.104;11.702;2023-07-09T01:55:00;26.08;;;23.60;;
62102;SDS011;48077;48.104;11.702;2023-07-09T01:57:28;28.98;;;26.15;;
62102;SDS011;48077;48.104;11.702;2023-07-09T01:59:56;32.33;;;29.00;;
62102;SDS011;48077;48.104;11.702;2023-07-09T02:02:19;35.10;;;31.40;;
62102;SDS011;48077;48.104;11.702;2023-07-09T02:04:42;37.85;;;34.15;;
62102;SDS011;48077;48.104;11.702;2023-07-09T02:07:06;32.78;;;29.48;;
62102;SDS011;48077;48.104;11.702;2023-07-09T02:09:29;34.00;;;30.42;;
62102;SDS011;48077;48.104;11.702;2023-07-09T02:11:52;36.17;;;32.80;;
62102;SDS011;48077;48.104;11.702;2023-07-09T02:14:16;27.58;;;24.85;;
62102;SDS011;48077;48.104;11.702;2023-07-09T02:16:39;33.47;;;30.40;;
62102;SDS011;48077;48.104;11.702;2023-07-09T02:19:02;32.45;;;29.42;;
62102;SDS011;48077;48.104;11.702;2023-07-09T02:21:26;31.85;;;28.60;;
62102;SDS011;48077;48.104;11.702;2023-07-09T02:23:52;34.22;;;30.90;;
62102;SDS011;48077;48.104;11.702;2023-07-09T02:26:16;34.67;;;31.30;;
62102;SDS011;48077;48.104;11.702;2023-07-09T02:28:39;31.55;;;28.70;;
62102;SDS011;48077;48.104;11.702;2023-07-09T02:31:03;35.20;;;31.90;;
62102;SDS011;48077;48.104;11.702;2023-07-09T02:33:26;32.90;;;29.13;;
62102;SDS011;48077;48.104;11.702;2023-07-09T02:35:50;32.75;;;29.70;;
62102;SDS011;48077;48.104;11.702;2023-07-09T02:38:15;34.40;;;30.98;;
62102;SDS011;48077;48.104;11.702;2023-07-09T02:40:39;31.58;;;28.60;;
62102;SDS011;48077;48.104;11.702;2023-07-09T02:43:02;34.03;;;30.65;;
62102;SDS011;48077;48.104;11.702;2023-07-09T02:45:25;31.45;;;28.33;;
62102;SDS011;48077;48.104;11.702;2023-07-09T02:47:49;36.20;;;32.53;;
62102;SDS011;48077;48.104;11.702;2023-07-09T02:50:12;32.90;;;29.33;;
62102;SDS011;48077;48.104;11.702;2023-07-09T02:52:35;36.78;;;32.95;;
62102;SDS011;48077;48.104;11.702;2023-07-09T02:54:59;32.80;;;29.77;;
62102;SDS011;48077;48.104;11.702;2023-07-09T02:57:22;33.33;;;30.00;;
62102;SDS011;48077;48.104;11.702;2023-07-09T02:59:46;33.08;;;29.67;;
62102;SDS011;48077;48.104;11.702;2023-07-09T03:02:09;36.78;;;33.20;;
62102;SDS011;48077;48.104;11.702;2023-07-09T03:04:33;32.70;;;29.65;;
62102;SDS011;48077;48.104;11.702;2023-07-09T03:06:56;35.03;;;31.60;;
62102;SDS011;48077;48.104;11.702;2023-07-09T03:09:20;31.98;;;28.67;;
62102;SDS011;48077;48.104;11.702;2023-07-09T03:11:43;35.10;;;31.83;;
62102;SDS011;48077;48.104;11.702;2023-07-09T03:14:07;38.33;;;34.80;;
62102;SDS011;48077;48.104;11.702;2023-07-09T03:16:32;36.83;;;33.33;;
62102;SDS011;48077;48.104;11.702;2023-07-09T03:18:56;33.55;;;30.20;;
62102;SDS011;48077;48.104;11.702;2023-07-09T03:21:20;36.88;;;33.38;;
62102;SDS011;48077;48.104;11.702;2023-07-09T03:23:44;37.15;;;33.78;;
62102;SDS011;48077;48.104;11.702;2023-07-09T03:26:08;38.28;;;34.72;;
62102;SDS011;48077;48.104;11.702;2023-07-09T03:28:32;34.10;;;31.10;;
62102;SDS011;48077;48.104;11.702;2023-07-09T03:30:56;37.92;;;34.03;;
62102;SDS011;48077;48.104;11.702;2023-07-09T03:33:19;35.08;;;31.23;;
62102;SDS011;48077;48.104;11.702;2023-07-09T03:35:43;38.63;;;34.95;;
62102;SDS011;48077;48.104;11.702;2023-07-09T03:38:06;37.50;;;33.80;;
62102;SDS011;48077;48.104;11.702;2023-07-09T03:40:31;35.95;;;32.28;;
62102;SDS011;48077;48.104;11.702;2023-07-09T03:42:55;35.45;;;31.88;;
62102;SDS011;48077;48.104;11.702;2023-07-09T03:45:18;34.83;;;31.58;;
62102;SDS011;48077;48.104;11.702;2023-07-09T03:47:41;38.13;;;34.63;;
62102;SDS011;48077;48.104;11.702;2023-07-09T03:50:06;37.75;;;34.03;;
62102;SDS011;48077;48.104;11.702;2023-07-09T03:52:31;35.95;;;32.53;;
62102;SDS011;48077;48.104;11.702;2023-07-09T03:54:54;38.97;;;35.10;;
62102;SDS011;48077;48.104;11.702;2023-07-09T03:57:19;36.38;;;32.90;;
62102;SDS011;48077;48.104;11.702;2023-07-09T03:59:42;34.38;;;31.23;;
62102;SDS011;48077;48.104;11.702;2023-07-09T04:02:06;37.40;;;33.75;;
62102;SDS011;48077;48.104;11.702;2023-07-09T04:04:30;34.13;;;30.90;;
62102;SDS011;48077;48.104;11.702;2023-07-09T04:06:53;35.53;;;32.05;;
62102;SDS011;48077;48.104;11.702;2023-07-09T04:09:16;31.73;;;28.75;;
62102;SDS011;48077;48.104;11.702;2023-07-09T04:11:40;34.13;;;30.80;;
62102;SDS011;48077;48.104;11.702;2023-07-09T04:14:03;32.78;;;29.48;;
62102;SDS011;48077;48.104;11.702;2023-07-09T04:16:27;31.67;;;28.55;;
62102;SDS011;48077;48.104;11.702;2023-07-09T04:18:50;34.28;;;30.90;;
62102;SDS011;48077;48.104;11.702;2023-07-09T04:21:13;28.95;;;26.00;;
62102;SDS011;48077;48.104;11.702;2023-07-09T04:23:37;31.10;;;28.02;;
62102;SDS011;48077;48.104;11.702;2023-07-09T04:26:00;29.08;;;26.25;;
62102;SDS011;48077;48.104;11.702;2023-07-09T04:28:25;34.22;;;31.00;;
62102;SDS011;48077;48.104;11.702;2023-07-09T04:30:49;28.58;;;25.60;;
62102;SDS011;48077;48.104;11.702;2023-07-09T04:33:14;33.15;;;29.70;;
62102;SDS011;48077;48.104;11.702;2023-07-09T04:35:40;29.23;;;26.48;;
62102;SDS011;48077;48.104;11.702;2023-07-09T04:38:03;27.88;;;25.08;;
62102;SDS011;48077;48.104;11.702;2023-07-09T04:40:27;28.20;;;25.35;;
62102;SDS011;48077;48.104;11.702;2023-07-09T04:42:50;25.48;;;22.83;;
62102;SDS011;48077;48.104;11.702;2023-07-09T04:45:13;29.10;;;26.42;;
62102;SDS011;48077;48.104;11.702;2023-07-09T04:47:37;29.73;;;26.70;;
62102;SDS011;48077;48.104;11.702;2023-07-09T04:50:02;22.98;;;20.90;;
62102;SDS011;48077;48.104;11.702;2023-07-09T04:52:26;25.13;;;22.13;;
62102;SDS011;48077;48.104;11.702;2023-07-09T04:54:49;25.13;;;22.75;;
62102;SDS011;48077;48.104;11.702;2023-07-09T04:57:13;28.77;;;25.88;;
62102;SDS011;48077;48.104;11.702;2023-07-09T04:59:36;24.95;;;21.63;;
62102;SDS011;48077;48.104;11.702;2023-07-09T05:02:00;22.58;;;20.20;;
62102;SDS011;48077;48.104;11.702;2023-07-09T05:04:23;24.17;;;21.63;;
62102;SDS011;48077;48.104;11.702;2023-07-09T05:06:47;23.85;;;21.23;;
62102;SDS011;48077;48.104;11.702;2023-07-09T05:09:10;22.20;;;19.95;;
62102;SDS011;48077;48.104;11.702;2023-07-09T05:11:34;18.92;;;17.02;;
62102;SDS011;48077;48.104;11.702;2023-07-09T05:13:58;19.00;;;16.80;;
62102;SDS011;48077;48.104;11.702;2023-07-09T05:16:21;21.98;;;17.40;;
62102;SDS011;48077;48.104;11.702;2023-07-09T05:18:45;17.58;;;15.05;;
62102;SDS011;48077;48.104;11.702;2023-07-09T05:21:08;16.38;;;14.65;;
62102;SDS011;48077;48.104;11.702;2023-07-09T05:23:32;15.13;;;13.57;;
62102;SDS011;48077;48.104;11.702;2023-07-09T05:25:59;21.05;;;18.15;;
62102;SDS011;48077;48.104;11.702;2023-07-09T05:28:23;13.77;;;11.63;;
62102;SDS011;48077;48.104;11.702;2023-07-09T05:30:46;19.42;;;15.77;;
62102;SDS011;48077;48.104;11.702;2023-07-09T05:33:10;16.50;;;12.95;;
62102;SDS011;48077;48.104;11.702;2023-07-09T05:35:33;15.75;;;13.88;;
62102;SDS011;48077;48.104;11.702;2023-07-09T05:37:56;17.42;;;14.55;;
62102;SDS011;48077;48.104;11.702;2023-07-09T05:40:20;15.82;;;12.82;;
62102;SDS011;48077;48.104;11.702;2023-07-09T05:42:44;18.08;;;11.27;;
62102;SDS011;48077;48.104;11.702;2023-07-09T05:45:08;16.00;;;9.63;;
62102;SDS011;48077;48.104;11.702;2023-07-09T05:47:31;12.73;;;9.35;;
62102;SDS011;48077;48.104;11.702;2023-07-09T05:49:55;14.95;;;11.15;;
62102;SDS011;48077;48.104;11.702;2023-07-09T05:52:21;12.57;;;9.32;;
62102;SDS011;48077;48.104;11.702;2023-07-09T05:54:48;12.88;;;8.68;;
62102;SDS011;48077;48.104;11.702;2023-07-09T05:57:12;10.93;;;8.10;;
62102;SDS011;48077;48.104;11.702;2023-07-09T05:59:35;12.70;;;9.27;;
62102;SDS011;48077;48.104;11.702;2023-07-09T06:01:59;10.82;;;7.55;;
62102;SDS011;48077;48.104;11.702;2023-07-09T06:04:24;13.77;;;10.30;;
62102;SDS011;48077;48.104;11.702;2023-07-09T06:06:48;13.07;;;9.43;;
62102;SDS011;48077;48.104;11.702;2023-07-09T06:09:11;11.65;;;7.85;;
62102;SDS011;48077;48.104;11.702;2023-07-09T06:11:35;10.07;;;7.13;;
62102;SDS011;48077;48.104;11.702;2023-07-09T06:13:58;11.30;;;7.07;;
62102;SDS011;48077;48.104;11.702;2023-07-09T06:16:22;10.95;;;6.20;;
62102;SDS011;48077;48.104;11.702;2023-07-09T06:18:45;14.73;;;7.18;;
62102;SDS011;48077;48.104;11.702;2023-07-09T06:21:09;12.18;;;8.32;;
62102;SDS011;48077;48.104;11.702;2023-07-09T06:23:34;12.93;;;6.85;;
62102;SDS011;48077;48.104;11.702;2023-07-09T06:25:57;12.77;;;6.40;;
62102;SDS011;48077;48.104;11.702;2023-07-09T06:28:22;11.23;;;6.70;;
62102;SDS011;48077;48.104;11.702;2023-07-09T06:30:47;12.98;;;8.80;;
62102;SDS011;48077;48.104;11.702;2023-07-09T06:33:12;13.82;;;9.05;;
62102;SDS011;48077;48.104;11.702;2023-07-09T06:35:36;11.43;;;6.78;;
62102;SDS011;48077;48.104;11.702;2023-07-09T06:38:00;12.00;;;6.70;;
62102;SDS011;48077;48.104;11.702;2023-07-09T06:40:23;11.15;;;6.25;;
62102;SDS011;48077;48.104;11.702;2023-07-09T06:42:47;11.45;;;6.53;;
62102;SDS011;48077;48.104;11.702;2023-07-09T06:45:11;11.20;;;6.60;;
62102;SDS011;48077;48.104;11.702;2023-07-09T06:47:34;11.18;;;6.10;;
62102;SDS011;48077;48.104;11.702;2023-07-09T06:49:57;13.20;;;6.38;;
62102;SDS011;48077;48.104;11.702;2023-07-09T06:52:21;16.08;;;7.68;;
62102;SDS011;48077;48.104;11.702;2023-07-09T06:54:44;10.90;;;5.80;;
62102;SDS011;48077;48.104;11.702;2023-07-09T06:57:07;10.98;;;6.00;;
62102;SDS011;48077;48.104;11.702;2023-07-09T06:59:31;8.85;;;5.32;;
62102;SDS011;48077;48.104;11.702;2023-07-09T07:01:54;10.70;;;6.63;;
62102;SDS011;48077;48.104;11.702;2023-07-09T07:04:17;12.30;;;6.43;;
62102;SDS011;48077;48.104;11.702;2023-07-09T07:06:41;10.50;;;5.80;;
62102;SDS011;48077;48.104;11.702;2023-07-09T07:09:04;7.10;;;5.35;;
62102;SDS011;48077;48.104;11.702;2023-07-09T07:11:27;8.15;;;6.03;;
62102;SDS011;48077;48.104;11.702;2023-07-09T07:13:53;9.27;;;5.95;;
62102;SDS011;48077;48.104;11.702;2023-07-09T07:16:17;8.32;;;5.55;;
62102;SDS011;48077;48.104;11.702;2023-07-09T07:18:40;7.85;;;5.28;;
62102;SDS011;48077;48.104;11.702;2023-07-09T07:21:04;9.60;;;6.40;;
62102;SDS011;48077;48.104;11.702;2023-07-09T07:23:28;11.38;;;6.07;;
62102;SDS011;48077;48.104;11.702;2023-07-09T07:25:52;12.35;;;6.43;;
62102;SDS011;48077;48.104;11.702;2023-07-09T07:28:17;9.73;;;5.93;;
62102;SDS011;48077;48.104;11.702;2023-07-09T07:30:41;9.35;;;5.32;;
62102;SDS011;48077;48.104;11.702;2023-07-09T07:33:05;7.70;;;6.03;;
62102;SDS011;48077;48.104;11.702;2023-07-09T07:35:29;7.88;;;4.93;;
62102;SDS011;48077;48.104;11.702;2023-07-09T07:37:52;9.25;;;6.05;;
62102;SDS011;48077;48.104;11.702;2023-07-09T07:40:16;12.98;;;7.03;;
62102;SDS011;48077;48.104;11.702;2023-07-09T07:42:39;9.15;;;6.60;;
62102;SDS011;48077;48.104;11.702;2023-07-09T07:45:03;11.75;;;5.60;;
62102;SDS011;48077;48.104;11.702;2023-07-09T07:47:31;7.75;;;5.20;;
62102;SDS011;48077;48.104;11.702;2023-07-09T07:49:54;12.45;;;6.97;;
62102;SDS011;48077;48.104;11.702;2023-07-09T07:52:18;9.23;;;5.03;;
62102;SDS011;48077;48.104;11.702;2023-07-09T07:54:47;9.55;;;5.45;;
62102;SDS011;48077;48.104;11.702;2023-07-09T07:57:11;12.27;;;6.20;;
62102;SDS011;48077;48.104;11.702;2023-07-09T07:59:35;11.48;;;6.25;;
62102;SDS011;48077;48.104;11.702;2023-07-09T08:02:00;12.60;;;6.97;;
62102;SDS011;48077;48.104;11.702;2023-07-09T08:04:23;13.18;;;8.02;;
62102;SDS011;48077;48.104;11.702;2023-07-09T08:06:47;13.55;;;8.10;;
62102;SDS011;48077;48.104;11.702;2023-07-09T08:09:10;10.68;;;6.20;;
62102;SDS011;48077;48.104;11.702;2023-07-09T08:11:34;12.98;;;6.78;;
62102;SDS011;48077;48.104;11.702;2023-07-09T08:13:58;10.85;;;5.82;;
62102;SDS011;48077;48.104;11.702;2023-07-09T08:16:21;9.95;;;5.50;;
62102;SDS011;48077;48.104;11.702;2023-07-09T08:18:44;12.70;;;5.38;;
62102;SDS011;48077;48.104;11.702;2023-07-09T08:21:08;11.43;;;5.50;;
62102;SDS011;48077;48.104;11.702;2023-07-09T08:23:32;8.68;;;5.53;;
62102;SDS011;48077;48.104;11.702;2023-07-09T08:25:56;7.22;;;5.32;;
62102;SDS011;48077;48.104;11.702;2023-07-09T08:28:20;9.15;;;5.60;;
62102;SDS011;48077;48.104;11.702;2023-07-09T08:30:44;9.32;;;4.93;;
62102;SDS011;48077;48.104;11.702;2023-07-09T08:33:08;12.40;;;6.47;;
62102;SDS011;48077;48.104;11.702;2023-07-09T08:35:31;10.25;;;6.47;;
62102;SDS011;48077;48.104;11.702;2023-07-09T08:37:55;12.90;;;6.80;;
62102;SDS011;48077;48.104;11.702;2023-07-09T08:40:18;12.90;;;5.55;;
62102;SDS011;48077;48.104;11.702;2023-07-09T08:42:43;17.77;;;7.30;;
62102;SDS011;48077;48.104;11.702;2023-07-09T08:45:29;11.93;;;6.38;;
62102;SDS011;48077;48.104;11.702;2023-07-09T08:48:03;8.98;;;5.43;;
62102;SDS011;48077;48.104;11.702;2023-07-09T08:50:38;13.45;;;6.03;;
62102;SDS011;48077;48.104;11.702;2023-07-09T08:53:05;11.93;;;5.60;;
62102;SDS011;48077;48.104;11.702;2023-07-09T08:55:35;10.90;;;5.57;;
62102;SDS011;48077;48.104;11.702;2023-07-09T08:58:05;11.55;;;5.70;;
62102;SDS011;48077;48.104;11.702;2023-07-09T09:00:50;9.48;;;5.68;;
62102;SDS011;48077;48.104;11.702;2023-07-09T09:06:10;10.38;;;4.90;;
62102;SDS011;48077;48.104;11.702;2023-07-09T09:08:39;10.90;;;5.80;;
62102;SDS011;48077;48.104;11.702;2023-07-09T09:14:12;11.25;;;6.43;;
62102;SDS011;48077;48.104;11.702;2023-07-09T09:16:44;11.32;;;5.57;;
62102;SDS011;48077;48.104;11.702;2023-07-09T09:19:18;12.35;;;6.35;;
62102;SDS011;48077;48.104;11.702;2023-07-09T09:21:45;13.63;;;6.28;;
62102;SDS011;48077;48.104;11.702;2023-07-09T09:24:22;12.52;;;5.75;;
62102;SDS011;48077;48.104;11.702;2023-07-09T09:26:54;11.70;;;5.55;;
62102;SDS011;48077;48.104;11.702;2023-07-09T09:29:20;8.90;;;4.60;;
62102;SDS011;48077;48.104;11.702;2023-07-09T09:31:45;10.52;;;5.15;;
62102;SDS011;48077;48.104;11.702;2023-07-09T09:34:22;11.85;;;5.07;;
62102;SDS011;48077;48.104;11.702;2023-07-09T09:36:48;12.43;;;6.47;;
62102;SDS011;48077;48.104;11.702;2023-07-09T09:39:11;12.82;;;6.25;;
62102;SDS011;48077;48.104;11.702;2023-07-09T09:41:36;12.38;;;6.13;;
62102;SDS011;48077;48.104;11.702;2023-07-09T09:44:00;12.32;;;5.97;;
62102;SDS011;48077;48.104;11.702;2023-07-09T09:46:25;9.82;;;5.93;;
62102;SDS011;48077;48.104;11.702;2023-07-09T09:48:54;11.15;;;5.63;;
62102;SDS011;48077;48.104;11.702;2023-07-09T09:51:18;8.75;;;5.00;;
62102;SDS011;48077;48.104;11.702;2023-07-09T09:53:45;13.85;;;6.68;;
62102;SDS011;48077;48.104;11.702;2023-07-09T09:56:30;11.43;;;6.20;;
62102;SDS011;48077;48.104;11.702;2023-07-09T09:58:59;11.70;;;6.13;;
62102;SDS011;48077;48.104;11.702;2023-07-09T10:01:41;11.18;;;6.65;;
62102;SDS011;48077;48.104;11.702;2023-07-09T10:04:04;10.65;;;6.07;;
62102;SDS011;48077;48.104;11.702;2023-07-09T10:06:39;11.68;;;5.57;;
62102;SDS011;48077;48.104;11.702;2023-07-09T10:12:13;9.68;;;5.32;;
62102;SDS011;48077;48.104;11.702;2023-07-09T10:14:59;12.40;;;5.97;;
62102;SDS011;48077;48.104;11.702;2023-07-09T10:20:25;20.42;;;6.45;;
62102;SDS011;48077;48.104;11.702;2023-07-09T10:22:52;11.95;;;6.22;;
62102;SDS011;48077;48.104;11.702;2023-07-09T10:28:16;10.88;;;6.25;;
62102;SDS011;48077;48.104;11.702;2023-07-09T10:33:38;10.60;;;5.78;;
62102;SDS011;48077;48.104;11.702;2023-07-09T10:36:30;11.82;;;6.53;;
62102;SDS011;48077;48.104;11.702;2023-07-09T10:39:05;10.23;;;6.10;;
62102;SDS011;48077;48.104;11.702;2023-07-09T10:41:33;9.25;;;5.97;;
62102;SDS011;48077;48.104;11.702;2023-07-09T10:44:05;14.52;;;6.28;;
62102;SDS011;48077;48.104;11.702;2023-07-09T10:46:35;9.93;;;6.30;;
62102;SDS011;48077;48.104;11.702;2023-07-09T10:49:02;8.98;;;5.55;;
62102;SDS011;48077;48.104;11.702;2023-07-09T10:51:31;12.27;;;5.63;;
62102;SDS011;48077;48.104;11.702;2023-07-09T10:56:44;11.93;;;6.30;;
62102;SDS011;48077;48.104;11.702;2023-07-09T10:59:18;8.93;;;5.35;;
62102;SDS011;48077;48.104;11.702;2023-07-09T11:01:50;10.88;;;6.55;;
62102;SDS011;48077;48.104;11.702;2023-07-09T11:07:04;7.47;;;5.20;;
62102;SDS011;48077;48.104;11.702;2023-07-09T11:09:33;7.50;;;5.22;;
62102;SDS011;48077;48.104;11.702;2023-07-09T11:12:02;8.50;;;5.15;;
62102;SDS011;48077;48.104;11.702;2023-07-09T11:14:39;9.02;;;6.28;;
62102;SDS011;48077;48.104;11.702;2023-07-09T11:17:07;6.40;;;4.88;;
62102;SDS011;48077;48.104;11.702;2023-07-09T11:19:45;8.27;;;5.93;;
62102;SDS011;48077;48.104;11.702;2023-07-09T11:22:14;12.25;;;6.63;;
62102;SDS011;48077;48.104;11.702;2023-07-09T11:24:49;10.75;;;6.07;;
62102;SDS011;48077;48.104;11.702;2023-07-09T11:27:19;8.77;;;5.78;;
62102;SDS011;48077;48.104;11.702;2023-07-09T11:29:47;9.50;;;5.68;;
62102;SDS011;48077;48.104;11.702;2023-07-09T11:32:26;7.68;;;4.80;;
62102;SDS011;48077;48.104;11.702;2023-07-09T11:34:50;13.73;;;6.53;;
62102;SDS011;48077;48.104;11.702;2023-07-09T11:37:14;12.13;;;6.15;;
62102;SDS011;48077;48.104;11.702;2023-07-09T11:42:03;8.85;;;5.53;;
62102;SDS011;48077;48.104;11.702;2023-07-09T11:44:45;11.40;;;6.40;;
62102;SDS011;48077;48.104;11.702;2023-07-09T11:50:00;10.90;;;5.63;;
62102;SDS011;48077;48.104;11.702;2023-07-09T11:52:33;9.55;;;6.65;;
62102;SDS011;48077;48.104;11.702;2023-07-09T11:57:46;8.35;;;6.13;;
62102;SDS011;48077;48.104;11.702;2023-07-09T12:00:10;10.75;;;6.15;;
62102;SDS011;48077;48.104;11.702;2023-07-09T12:02:34;8.13;;;5.40;;
62102;SDS011;48077;48.104;11.702;2023-07-09T12:04:58;10.32;;;6.03;;
62102;SDS011;48077;48.104;11.702;2023-07-09T12:07:22;11.18;;;6.88;;
62102;SDS011;48077;48.104;11.702;2023-07-09T12:09:48;10.20;;;5.38;;
62102;SDS011;48077;48.104;11.702;2023-07-09T12:12:20;10.10;;;5.43;;
62102;SDS011;48077;48.104;11.702;2023-07-09T12:14:46;9.38;;;5.35;;
62102;SDS011;48077;48.104;11.702;2023-07-09T12:17:10;9.18;;;5.20;;
62102;SDS011;48077;48.104;11.702;2023-07-09T12:19:33;8.65;;;5.15;;
62102;SDS011;48077;48.104;11.702;2023-07-09T12:21:57;7.82;;;5.70;;
62102;SDS011;48077;48.104;11.702;2023-07-09T12:24:28;7.10;;;4.93;;
62102;SDS011;48077;48.104;11.702;2023-07-09T12:26:55;9.05;;;5.65;;
62102;SDS011;48077;48.104;11.702;2023-07-09T12:29:24;5.90;;;4.47;;
62102;SDS011;48077;48.104;11.702;2023-07-09T12:31:48;7.32;;;5.07;;
62102;SDS011;48077;48.104;11.702;2023-07-09T12:34:13;8.70;;;5.70;;
62102;SDS011;48077;48.104;11.702;2023-07-09T12:36:38;9.07;;;5.47;;
62102;SDS011;48077;48.104;11.702;2023-07-09T12:39:09;11.25;;;6.30;;
62102;SDS011;48077;48.104;11.702;2023-07-09T12:41:38;10.07;;;5.47;;
62102;SDS011;48077;48.104;11.702;2023-07-09T12:44:03;9.30;;;5.60;;
62102;SDS011;48077;48.104;11.702;2023-07-09T12:46:26;8.98;;;5.43;;
62102;SDS011;48077;48.104;11.702;2023-07-09T12:48:51;8.73;;;5.57;;
62102;SDS011;48077;48.104;11.702;2023-07-09T12:51:15;10.48;;;6.50;;
62102;SDS011;48077;48.104;11.702;2023-07-09T12:53:43;15.23;;;6.88;;
62102;SDS011;48077;48.104;11.702;2023-07-09T12:56:09;10.68;;;5.70;;
62102;SDS011;48077;48.104;11.702;2023-07-09T12:58:36;8.88;;;5.55;;
62102;SDS011;48077;48.104;11.702;2023-07-09T13:01:04;11.85;;;6.55;;
62102;SDS011;48077;48.104;11.702;2023-07-09T13:03:30;9.38;;;6.07;;
62102;SDS011;48077;48.104;11.702;2023-07-09T13:08:42;9.48;;;5.80;;
62102;SDS011;48077;48.104;11.702;2023-07-09T13:11:16;10.93;;;7.05;;
62102;SDS011;48077;48.104;11.702;2023-07-09T13:13:40;8.27;;;5.47;;
62102;SDS011;48077;48.104;11.702;2023-07-09T13:16:03;8.88;;;6.10;;
62102;SDS011;48077;48.104;11.702;2023-07-09T13:18:27;9.95;;;5.20;;
62102;SDS011;48077;48.104;11.702;2023-07-09T13:20:51;9.43;;;5.55;;
62102;SDS011;48077;48.104;11.702;2023-07-09T13:23:19;9.18;;;5.50;;
62102;SDS011;48077;48.104;11.702;2023-07-09T13:25:44;8.45;;;5.75;;
62102;SDS011;48077;48.104;11.702;2023-07-09T13:30:44;11.57;;;5.95;;
62102;SDS011;48077;48.104;11.702;2023-07-09T13:33:10;8.18;;;6.10;;
62102;SDS011;48077;48.104;11.702;2023-07-09T13:35:34;11.25;;;6.88;;
62102;SDS011;48077;48.104;11.702;2023-07-09T13:37:57;8.52;;;5.70;;
62102;SDS011;48077;48.104;11.702;2023-07-09T13:40:20;9.85;;;5.70;;
62102;SDS011;48077;48.104;11.702;2023-07-09T13:42:44;10.30;;;6.35;;
62102;SDS011;48077;48.104;11.702;2023-07-09T13:45:18;8.40;;;5.63;;
62102;SDS011;48077;48.104;11.702;2023-07-09T13:47:45;9.88;;;5.97;;
62102;SDS011;48077;48.104;11.702;2023-07-09T13:50:08;8.15;;;5.85;;
62102;SDS011;48077;48.104;11.702;2023-07-09T13:52:32;8.15;;;5.10;;
62102;SDS011;48077;48.104;11.702;2023-07-09T13:54:57;10.45;;;5.95;;
62102;SDS011;48077;48.104;11.702;2023-07-09T13:57:23;8.45;;;5.80;;
62102;SDS011;48077;48.104;11.702;2023-07-09T13:59:46;9.60;;;6.55;;
62102;SDS011;48077;48.104;11.702;2023-07-09T14:02:17;7.55;;;5.18;;
62102;SDS011;48077;48.104;11.702;2023-07-09T14:04:43;8.27;;;5.28;;
62102;SDS011;48077;48.104;11.702;2023-07-09T14:07:09;10.25;;;6.43;;
62102;SDS011;48077;48.104;11.702;2023-07-09T14:09:47;7.03;;;5.65;;
62102;SDS011;48077;48.104;11.702;2023-07-09T14:12:10;6.47;;;5.50;;
62102;SDS011;48077;48.104;11.702;2023-07-09T14:14:34;8.85;;;5.75;;
62102;SDS011;48077;48.104;11.702;2023-07-09T14:16:57;10.02;;;5.47;;
62102;SDS011;48077;48.104;11.702;2023-07-09T14:19:22;8.68;;;5.47;;
62102;SDS011;48077;48.104;11.702;2023-07-09T14:21:47;10.43;;;5.63;;
62102;SDS011;48077;48.104;11.702;2023-07-09T14:26:42;12.35;;;5.57;;
62102;SDS011;48077;48.104;11.702;2023-07-09T14:29:05;9.82;;;5.70;;
62102;SDS011;48077;48.104;11.702;2023-07-09T14:31:30;11.93;;;5.38;;
62102;SDS011;48077;48.104;11.702;2023-07-09T14:33:56;12.43;;;6.10;;
62102;SDS011;48077;48.104;11.702;2023-07-09T14:36:37;10.13;;;5.80;;
62102;SDS011;48077;48.104;11.702;2023-07-09T14:39:00;6.97;;;4.85;;
62102;SDS011;48077;48.104;11.702;2023-07-09T14:41:24;12.52;;;5.25;;
62102;SDS011;48077;48.104;11.702;2023-07-09T14:43:49;11.02;;;5.72;;
62102;SDS011;48077;48.104;11.702;2023-07-09T14:46:12;9.05;;;5.72;;
62102;SDS011;48077;48.104;11.702;2023-07-09T14:48:36;8.10;;;5.50;;
62102;SDS011;48077;48.104;11.702;2023-07-09T14:50:59;11.63;;;6.35;;
62102;SDS011;48077;48.104;11.702;2023-07-09T14:53:26;7.07;;;4.65;;
62102;SDS011;48077;48.104;11.702;2023-07-09T14:55:51;10.13;;;5.35;;